createdAt,value
2023-01-25T00:00:51.311Z,101418.00
2023-01-25T00:03:18.573Z,101413.94
2023-01-25T00:05:45.786Z,101401.69
2023-01-25T00:08:12.902Z,101421.50
2023-01-25T00:10:40.078Z,101405.06
2023-01-25T00:13:07.159Z,101408.72
2023-01-25T00:15:34.295Z,101404.28
2023-01-25T00:18:01.426Z,101396.22
2023-01-25T00:20:28.632Z,101398.06
2023-01-25T00:22:55.722Z,101399.88
2023-01-25T00:25:22.844Z,101402.22
2023-01-25T00:27:49.950Z,101401.16
2023-01-25T00:30:17.286Z,101406.31
2023-01-25T00:33:03.371Z,101402.22
2023-01-25T00:35:32.656Z,101393.03
2023-01-25T00:38:03.325Z,101395.81
2023-01-25T00:40:30.689Z,101389.63
2023-01-25T00:43:00.924Z,101387.56
2023-01-25T00:45:28.207Z,101390.13
2023-01-25T00:47:56.552Z,101379.00
2023-01-25T00:50:23.736Z,101371.66
2023-01-25T00:52:50.912Z,101367.16
2023-01-25T00:55:18.125Z,101362.13
2023-01-25T00:57:45.263Z,101363.44
2023-01-25T01:00:13.473Z,101344.28
2023-01-25T01:02:40.756Z,101351.41
2023-01-25T01:05:08.594Z,101346.19
2023-01-25T01:07:35.914Z,101354.00
2023-01-25T01:10:03.508Z,101335.28
2023-01-25T01:12:30.932Z,101267.06
2023-01-25T01:14:58.281Z,101356.34
2023-01-25T01:17:25.495Z,101331.78
2023-01-25T01:19:52.545Z,101348.75
2023-01-25T01:22:19.614Z,101343.75
2023-01-25T01:24:49.048Z,101338.81
2023-01-25T01:27:16.262Z,101337.75
2023-01-25T01:29:43.510Z,101346.47
2023-01-25T01:32:10.929Z,101348.28
2023-01-25T01:34:38.155Z,101340.09
2023-01-25T01:37:05.283Z,101312.00
2023-01-25T01:39:32.480Z,101329.06
2023-01-25T01:41:59.736Z,101318.50
2023-01-25T01:44:45.103Z,101316.13
2023-01-25T01:47:29.209Z,101316.75
2023-01-25T01:50:06.160Z,101311.91
2023-01-25T01:52:37.915Z,101312.88
2023-01-25T01:55:08.480Z,101312.50
2023-01-25T01:57:41.701Z,101309.81
2023-01-25T02:00:33.902Z,101310.72
2023-01-25T02:03:02.156Z,101295.00
2023-01-25T02:05:56.476Z,101303.16
2023-01-25T02:08:25.073Z,101301.06
2023-01-25T02:10:52.947Z,101305.84
2023-01-25T02:13:21.668Z,101304.16
2023-01-25T02:15:52.012Z,101309.56
2023-01-25T02:18:24.569Z,101309.22
2023-01-25T02:20:57.761Z,101306.00
2023-01-25T02:23:33.450Z,101315.97
2023-01-25T02:26:05.839Z,101318.00
2023-01-25T02:28:48.803Z,101306.97
2023-01-25T02:31:16.080Z,101311.84
2023-01-25T02:33:43.227Z,101316.19
2023-01-25T02:36:35.546Z,101320.59
2023-01-25T02:39:08.047Z,101324.78
2023-01-25T02:41:41.844Z,101322.03
2023-01-25T02:44:21.461Z,101311.31
2023-01-25T02:46:48.885Z,101319.75
2023-01-25T02:49:17.056Z,101313.69
2023-01-25T02:51:47.686Z,101313.81
2023-01-25T02:54:16.839Z,101322.41
2023-01-25T02:56:43.995Z,101319.19
2023-01-25T02:59:13.510Z,101316.19
2023-01-25T03:01:45.489Z,101311.88
2023-01-25T03:04:13.142Z,101299.16
2023-01-25T03:06:40.706Z,101297.81
2023-01-25T03:09:10.263Z,101306.47
2023-01-25T03:11:40.682Z,101312.97
2023-01-25T03:14:07.856Z,101309.47
2023-01-25T03:16:35.086Z,101306.28
2023-01-25T03:19:03.521Z,101314.50
2023-01-25T03:21:30.757Z,101307.22
2023-01-25T03:24:00.768Z,101302.56
2023-01-25T03:26:54.748Z,101292.84
2023-01-25T03:29:26.643Z,101292.72
2023-01-25T03:31:54.029Z,101291.78
2023-01-25T03:34:21.318Z,101297.28
2023-01-25T03:36:48.427Z,101293.63
2023-01-25T03:39:15.776Z,101282.34
2023-01-25T03:41:43.982Z,101270.84
2023-01-25T03:44:13.819Z,101277.88
2023-01-25T03:46:43.163Z,101284.34
2023-01-25T03:49:12.052Z,101291.13
2023-01-25T03:51:39.180Z,101278.59
2023-01-25T03:54:08.508Z,101281.38
2023-01-25T03:56:37.528Z,101288.09
2023-01-25T03:59:12.709Z,101295.16
2023-01-25T04:01:41.184Z,101289.88
2023-01-25T04:04:08.379Z,101300.69
2023-01-25T04:06:37.570Z,101283.66
2023-01-25T04:09:05.530Z,101275.91
2023-01-25T04:11:38.855Z,101281.09
2023-01-25T04:14:06.393Z,101279.00
2023-01-25T04:16:41.755Z,101270.28
2023-01-25T04:19:24.483Z,101278.41
2023-01-25T04:21:51.758Z,101277.28
2023-01-25T04:24:19.233Z,101273.50
2023-01-25T04:26:46.395Z,101266.06
2023-01-25T04:29:14.103Z,101278.28
2023-01-25T04:31:41.400Z,101285.06
2023-01-25T04:34:08.586Z,101276.75
2023-01-25T04:36:35.815Z,101289.50
2023-01-25T04:39:03.251Z,101283.91
2023-01-25T04:41:31.075Z,101292.63
2023-01-25T04:43:58.455Z,101287.41
2023-01-25T04:46:26.083Z,101281.47
2023-01-25T04:48:55.047Z,101291.59
2023-01-25T04:51:22.158Z,101288.09
2023-01-25T04:53:49.282Z,101306.41
2023-01-25T04:56:16.427Z,101306.41
2023-01-25T04:58:53.906Z,101292.72
2023-01-25T05:01:22.374Z,101304.09
2023-01-25T05:03:51.247Z,101294.75
2023-01-25T05:06:38.623Z,101311.38
2023-01-25T05:09:06.815Z,101314.50
2023-01-25T05:11:35.500Z,101299.56
2023-01-25T05:14:07.031Z,101313.13
2023-01-25T05:16:34.974Z,101307.75
2023-01-25T05:19:03.392Z,101297.47
2023-01-25T05:21:59.653Z,101279.03
2023-01-25T05:24:45.372Z,101306.38
2023-01-25T05:27:18.203Z,101305.50
2023-01-25T05:29:55.358Z,101304.25
2023-01-25T05:32:38.738Z,101306.41
2023-01-25T05:35:07.402Z,101306.69
2023-01-25T05:37:34.941Z,101314.78
2023-01-25T05:40:06.388Z,101312.41
2023-01-25T05:42:37.673Z,101315.41
2023-01-25T05:45:09.417Z,101323.88
2023-01-25T05:47:39.328Z,101311.50
2023-01-25T05:50:08.791Z,101303.81
2023-01-25T05:52:50.735Z,101301.44
2023-01-25T05:55:18.201Z,101295.50
2023-01-25T05:57:45.340Z,101299.41
2023-01-25T06:00:12.859Z,101295.56
2023-01-25T06:02:42.860Z,101290.19
2023-01-25T06:05:16.813Z,101287.06
2023-01-25T06:07:44.030Z,101290.53
2023-01-25T06:10:11.973Z,101297.59
2023-01-25T06:12:40.683Z,101293.47
2023-01-25T06:15:08.891Z,101292.28
2023-01-25T06:17:36.230Z,101295.13
2023-01-25T06:20:17.086Z,101302.41
2023-01-25T06:23:02.583Z,101297.97
2023-01-25T06:25:29.916Z,101296.81
2023-01-25T06:27:57.058Z,101292.47
2023-01-25T06:30:24.189Z,101289.66
2023-01-25T06:32:51.334Z,101290.78
2023-01-25T06:35:18.468Z,101276.66
2023-01-25T06:37:45.694Z,101287.81
2023-01-25T06:40:13.000Z,101275.97
2023-01-25T06:42:40.080Z,101285.47
2023-01-25T06:45:08.203Z,101286.88
2023-01-25T06:47:35.615Z,101284.28
2023-01-25T06:50:02.754Z,101275.59
2023-01-25T06:52:31.988Z,101285.78
2023-01-25T06:54:59.135Z,101283.97
2023-01-25T06:57:26.217Z,101277.28
2023-01-25T06:59:53.283Z,101274.88
2023-01-25T07:02:20.510Z,101293.44
2023-01-25T07:04:47.883Z,101298.38
2023-01-25T07:07:14.999Z,101295.00
2023-01-25T07:09:42.244Z,101290.88
2023-01-25T07:12:09.408Z,101299.41
2023-01-25T07:14:36.666Z,101302.97
2023-01-25T07:17:04.109Z,101300.19
2023-01-25T07:19:31.473Z,101306.63
2023-01-25T07:21:58.599Z,101301.03
2023-01-25T07:24:27.410Z,101289.94
2023-01-25T07:26:54.575Z,101287.00
2023-01-25T07:29:22.581Z,101293.19
2023-01-25T07:31:49.791Z,101296.16
2023-01-25T07:34:17.009Z,101279.44
2023-01-25T07:36:44.733Z,101281.75
2023-01-25T07:39:12.131Z,101294.03
2023-01-25T07:41:40.420Z,101297.53
2023-01-25T07:44:12.452Z,101296.78
2023-01-25T07:46:44.672Z,101298.69
2023-01-25T07:49:11.757Z,101292.38
2023-01-25T07:51:38.871Z,101300.69
2023-01-25T07:54:06.108Z,101292.41
2023-01-25T07:56:36.626Z,101294.03
2023-01-25T07:59:04.433Z,101295.00
2023-01-25T08:01:34.552Z,101264.69
2023-01-25T08:04:03.018Z,101283.47
2023-01-25T08:06:35.723Z,101284.88
2023-01-25T08:09:19.921Z,101283.59
2023-01-25T08:11:49.436Z,101296.69
2023-01-25T08:14:16.877Z,101274.09
2023-01-25T08:16:44.110Z,101289.78
2023-01-25T08:19:11.955Z,101280.56
2023-01-25T08:21:39.918Z,101277.03
2023-01-25T08:24:08.251Z,101284.75
2023-01-25T08:26:36.475Z,101272.38
2023-01-25T08:29:04.621Z,101274.09
2023-01-25T08:31:35.063Z,101278.72
2023-01-25T08:34:02.778Z,101272.47
2023-01-25T08:36:30.225Z,101263.78
2023-01-25T08:39:02.928Z,101277.31
2023-01-25T08:41:31.904Z,101285.53
2023-01-25T08:43:59.648Z,101270.72
2023-01-25T08:46:31.363Z,101270.28
2023-01-25T08:49:01.214Z,101251.84
2023-01-25T08:51:28.852Z,101269.50
2023-01-25T08:53:55.990Z,101258.91
2023-01-25T08:56:23.094Z,101264.25
2023-01-25T08:58:51.245Z,101259.16
2023-01-25T09:01:20.178Z,101255.63
2023-01-25T09:03:51.779Z,101225.22
2023-01-25T09:06:20.407Z,101241.94
2023-01-25T09:08:48.437Z,101240.41
2023-01-25T09:11:18.653Z,101229.09
2023-01-25T09:13:46.400Z,101223.41
2023-01-25T09:16:16.159Z,101220.03
2023-01-25T09:18:44.654Z,101219.72
2023-01-25T09:21:17.108Z,101210.72
2023-01-25T09:23:51.338Z,101211.78
2023-01-25T09:26:25.804Z,101214.38
2023-01-25T09:28:54.783Z,101224.19
2023-01-25T09:31:23.848Z,101214.00
2023-01-25T09:34:14.665Z,101207.16
2023-01-25T09:36:41.845Z,101199.69
2023-01-25T09:39:12.460Z,101203.28
2023-01-25T09:41:42.552Z,101204.00
2023-01-25T09:44:22.678Z,101192.94
2023-01-25T09:47:04.177Z,101194.13
2023-01-25T09:49:59.480Z,101177.00
2023-01-25T09:53:11.306Z,101173.31
2023-01-25T09:55:39.677Z,101173.75
2023-01-25T09:58:22.092Z,101167.09
2023-01-25T10:00:55.050Z,101159.66
2023-01-25T10:03:32.551Z,101159.16
2023-01-25T10:06:02.782Z,101159.66
2023-01-25T10:08:43.032Z,101156.16
2023-01-25T10:11:22.015Z,101158.44
2023-01-25T10:13:49.436Z,101142.59
2023-01-25T10:16:26.074Z,101153.19
2023-01-25T10:19:03.699Z,101142.63
2023-01-25T10:21:49.209Z,101147.41
2023-01-25T10:24:34.994Z,101140.59
2023-01-25T10:27:13.980Z,101115.78
2023-01-25T10:29:41.416Z,101126.41
2023-01-25T10:32:35.845Z,101143.72
2023-01-25T10:35:29.431Z,101118.50
2023-01-25T10:38:07.188Z,101141.94
2023-01-25T10:40:46.547Z,101135.47
2023-01-25T10:43:19.139Z,101142.16
2023-01-25T10:45:48.193Z,101145.13
2023-01-25T10:48:22.454Z,101144.16
2023-01-25T10:50:54.998Z,101135.56
2023-01-25T10:53:30.103Z,101140.19
2023-01-25T10:56:02.378Z,101127.53
2023-01-25T10:58:30.805Z,101107.91
2023-01-25T11:00:58.199Z,101090.53
2023-01-25T11:03:35.347Z,101110.34
2023-01-25T11:06:02.598Z,101101.78
2023-01-25T11:08:44.660Z,101106.06
2023-01-25T11:11:32.858Z,101093.06
2023-01-25T11:14:00.540Z,101097.59
2023-01-25T11:16:34.236Z,101106.78
2023-01-25T11:19:02.950Z,101101.50
2023-01-25T11:21:33.510Z,101089.78
2023-01-25T11:24:18.926Z,101082.66
2023-01-25T11:26:46.731Z,101072.88
2023-01-25T11:29:17.961Z,101083.25
2023-01-25T11:31:51.772Z,101079.13
2023-01-25T11:34:22.275Z,101074.69
2023-01-25T11:37:18.524Z,101072.63
2023-01-25T11:40:13.517Z,101067.94
2023-01-25T11:43:09.517Z,101069.03
2023-01-25T11:46:27.189Z,101058.38
2023-01-25T11:49:26.451Z,101055.72
2023-01-25T11:51:56.742Z,101055.03
2023-01-25T11:54:51.482Z,101050.66
2023-01-25T11:57:45.964Z,101050.22
2023-01-25T12:00:26.915Z,101054.72
2023-01-25T12:03:18.852Z,101050.13
2023-01-25T12:06:01.219Z,101053.25
2023-01-25T12:08:46.723Z,101052.88
2023-01-25T12:11:54.651Z,101057.94
2023-01-25T12:14:41.905Z,101060.25
2023-01-25T12:17:11.927Z,101058.22
2023-01-25T12:20:06.969Z,101047.91
2023-01-25T12:22:52.668Z,101054.66
2023-01-25T12:25:41.131Z,101049.13
2023-01-25T12:28:08.361Z,101050.81
2023-01-25T12:31:02.693Z,101052.69
2023-01-25T12:33:39.812Z,101054.63
2023-01-25T12:36:23.267Z,101049.72
2023-01-25T12:39:13.790Z,101034.97
2023-01-25T12:41:50.413Z,101036.09
2023-01-25T12:44:24.741Z,101020.72
2023-01-25T12:47:18.835Z,101029.53
2023-01-25T12:49:55.469Z,101030.13
2023-01-25T12:52:32.338Z,101031.53
2023-01-25T12:55:05.440Z,101016.22
2023-01-25T12:57:42.020Z,101032.91
2023-01-25T13:00:50.656Z,101033.91
2023-01-25T13:03:50.490Z,101017.22
2023-01-25T13:06:39.667Z,101001.53
2023-01-25T13:09:33.878Z,101014.94
2023-01-25T13:12:04.252Z,101016.13
2023-01-25T13:14:39.458Z,101017.22
2023-01-25T13:17:35.652Z,101006.34
2023-01-25T13:20:41.742Z,101015.53
2023-01-25T13:23:47.619Z,101006.72
2023-01-25T13:26:28.456Z,101003.81
2023-01-25T13:29:01.219Z,100980.66
2023-01-25T13:31:51.685Z,101002.31
2023-01-25T13:34:35.768Z,100980.84
2023-01-25T13:37:19.401Z,100975.03
2023-01-25T13:39:46.529Z,100970.00
2023-01-25T13:42:13.611Z,100971.53
2023-01-25T13:44:47.157Z,100963.31
2023-01-25T13:47:20.259Z,100976.75
2023-01-25T13:49:54.498Z,100964.72
2023-01-25T13:52:24.767Z,100955.31
2023-01-25T13:54:56.823Z,100949.06
2023-01-25T13:57:29.749Z,100935.91
2023-01-25T14:00:10.689Z,100933.75
2023-01-25T14:02:56.962Z,100936.63
2023-01-25T14:05:26.142Z,100931.25
2023-01-25T14:07:56.659Z,100912.97
2023-01-25T14:10:27.907Z,100923.34
2023-01-25T14:13:02.513Z,100905.66
2023-01-25T14:15:33.176Z,100913.28
2023-01-25T14:18:16.441Z,100911.56
2023-01-25T14:20:45.326Z,100915.00
2023-01-25T14:23:27.192Z,100892.25
2023-01-25T14:25:56.002Z,100902.66
2023-01-25T14:28:23.157Z,100902.88
2023-01-25T14:30:55.952Z,100902.56
2023-01-25T14:33:32.104Z,100906.50
2023-01-25T14:36:24.432Z,100901.75
2023-01-25T14:38:53.160Z,100907.28
2023-01-25T14:41:28.707Z,100906.25
2023-01-25T14:43:58.236Z,100914.16
2023-01-25T14:46:28.754Z,100880.97
2023-01-25T14:49:26.462Z,100905.41
2023-01-25T14:52:05.624Z,100903.47
2023-01-25T14:54:35.633Z,100910.59
2023-01-25T14:57:05.856Z,100907.75
2023-01-25T14:59:39.953Z,100904.78
2023-01-25T15:02:27.066Z,100903.94
2023-01-25T15:04:59.169Z,100908.53
2023-01-25T15:07:49.568Z,100915.09
2023-01-25T15:10:19.820Z,100917.69
2023-01-25T15:13:14.165Z,100906.94
2023-01-25T15:15:58.954Z,100913.53
2023-01-25T15:18:53.452Z,100904.78
2023-01-25T15:21:24.698Z,100911.19
2023-01-25T15:23:53.167Z,100912.59
2023-01-25T15:26:29.004Z,100912.47
2023-01-25T15:29:17.731Z,100914.44
2023-01-25T15:31:45.150Z,100909.28
2023-01-25T15:34:38.620Z,100909.91
2023-01-25T15:37:05.671Z,100904.84
2023-01-25T15:39:32.875Z,100903.94
2023-01-25T15:42:00.053Z,100891.25
2023-01-25T15:44:27.195Z,100879.34
2023-01-25T15:46:54.530Z,100869.22
2023-01-25T15:49:26.795Z,100879.47
2023-01-25T15:51:55.276Z,100890.94
2023-01-25T15:54:22.596Z,100902.53
2023-01-25T15:56:55.610Z,100897.94
2023-01-25T15:59:23.033Z,100887.72
2023-01-25T16:01:50.236Z,100892.00
2023-01-25T16:04:17.366Z,100894.63
2023-01-25T16:06:50.219Z,100891.34
2023-01-25T16:09:20.233Z,100884.53
2023-01-25T16:11:51.235Z,100884.75
2023-01-25T16:14:18.325Z,100878.50
2023-01-25T16:16:49.191Z,100858.44
2023-01-25T16:19:20.143Z,100874.50
2023-01-25T16:21:47.364Z,100870.59
2023-01-25T16:24:14.993Z,100862.34
2023-01-25T16:26:50.819Z,100872.13
2023-01-25T16:29:17.945Z,100874.50
2023-01-25T16:31:45.244Z,100868.91
2023-01-25T16:34:12.738Z,100861.41
2023-01-25T16:36:39.910Z,100863.97
2023-01-25T16:39:17.562Z,100855.31
2023-01-25T16:41:44.637Z,100853.88
2023-01-25T16:44:11.796Z,100853.94
2023-01-25T16:46:38.873Z,100854.88
2023-01-25T16:49:09.121Z,100843.03
2023-01-25T16:51:37.581Z,100837.56
2023-01-25T16:54:04.707Z,100834.31
2023-01-25T16:56:33.405Z,100820.28
2023-01-25T16:59:03.821Z,100823.69
2023-01-25T17:01:31.565Z,100821.81
2023-01-25T17:03:58.845Z,100822.53
2023-01-25T17:06:29.410Z,100817.56
2023-01-25T17:09:00.345Z,100814.25
2023-01-25T17:11:27.715Z,100827.63
2023-01-25T17:13:57.699Z,100824.97
2023-01-25T17:16:26.602Z,100837.72
2023-01-25T17:19:00.099Z,100828.09
2023-01-25T17:21:27.765Z,100831.91
2023-01-25T17:23:57.077Z,100820.22
2023-01-25T17:26:24.699Z,100812.97
2023-01-25T17:28:52.762Z,100821.53
2023-01-25T17:31:22.947Z,100824.31
2023-01-25T17:33:50.438Z,100823.22
2023-01-25T17:36:17.541Z,100825.34
2023-01-25T17:38:44.911Z,100829.03
2023-01-25T17:41:14.854Z,100821.22
2023-01-25T17:43:42.369Z,100808.03
2023-01-25T17:46:25.729Z,100816.19
2023-01-25T17:48:53.682Z,100810.72
2023-01-25T17:51:22.860Z,100804.09
2023-01-25T17:53:51.876Z,100807.41
2023-01-25T17:56:21.773Z,100803.19
2023-01-25T17:58:49.173Z,100806.28
2023-01-25T18:01:19.342Z,100807.50
2023-01-25T18:03:47.672Z,100790.97
2023-01-25T18:06:17.062Z,100800.28
2023-01-25T18:08:48.290Z,100801.81
2023-01-25T18:11:21.853Z,100807.84
2023-01-25T18:13:54.427Z,100813.75
2023-01-25T18:16:22.791Z,100812.06
2023-01-25T18:18:52.340Z,100804.88
2023-01-25T18:21:25.947Z,100800.53
2023-01-25T18:23:55.831Z,100798.47
2023-01-25T18:26:31.966Z,100793.91
2023-01-25T18:29:26.190Z,100787.59
2023-01-25T18:31:53.559Z,100789.63
2023-01-25T18:34:20.708Z,100786.06
2023-01-25T18:36:48.664Z,100781.31
2023-01-25T18:39:15.770Z,100783.81
2023-01-25T18:41:44.677Z,100784.78
2023-01-25T18:44:11.891Z,100779.59
2023-01-25T18:46:40.671Z,100774.53
2023-01-25T18:49:07.788Z,100771.56
2023-01-25T18:51:38.945Z,100779.19
2023-01-25T18:54:11.475Z,100774.16
2023-01-25T18:56:38.569Z,100767.47
2023-01-25T18:59:06.148Z,100769.34
2023-01-25T19:01:33.406Z,100768.75
2023-01-25T19:04:00.573Z,100774.59
2023-01-25T19:06:27.695Z,100768.81
2023-01-25T19:08:56.597Z,100768.53
2023-01-25T19:11:24.073Z,100762.91
2023-01-25T19:13:51.203Z,100759.56
2023-01-25T19:16:21.364Z,100741.25
2023-01-25T19:18:50.538Z,100741.34
2023-01-25T19:21:20.979Z,100739.34
2023-01-25T19:23:48.577Z,100750.31
2023-01-25T19:26:18.191Z,100732.94
2023-01-25T19:28:46.269Z,100737.53
2023-01-25T19:31:18.523Z,100731.88
2023-01-25T19:33:46.141Z,100708.78
2023-01-25T19:36:16.781Z,100733.69
2023-01-25T19:38:45.395Z,100715.53
2023-01-25T19:41:15.305Z,100704.59
2023-01-25T19:43:43.638Z,100724.75
2023-01-25T19:46:16.073Z,100713.75
2023-01-25T19:48:44.586Z,100714.44
2023-01-25T19:51:14.379Z,100715.72
2023-01-25T19:53:46.936Z,100717.63
2023-01-25T19:56:16.403Z,100727.13
2023-01-25T19:58:49.835Z,100721.00
2023-01-25T20:01:22.174Z,100713.97
2023-01-25T20:03:49.678Z,100714.13
2023-01-25T20:06:18.594Z,100724.28
2023-01-25T20:08:47.083Z,100710.16
2023-01-25T20:11:21.776Z,100708.03
2023-01-25T20:13:51.219Z,100697.31
2023-01-25T20:16:19.376Z,100699.78
2023-01-25T20:18:48.298Z,100706.44
2023-01-25T20:21:21.185Z,100719.94
2023-01-25T20:23:50.949Z,100716.88
2023-01-25T20:26:23.971Z,100717.50
2023-01-25T20:28:52.728Z,100718.41
2023-01-25T20:31:19.950Z,100710.69
2023-01-25T20:33:48.028Z,100710.44
2023-01-25T20:36:15.224Z,100701.38
2023-01-25T20:38:42.757Z,100702.81
2023-01-25T20:41:15.704Z,100698.88
2023-01-25T20:43:50.558Z,100694.59
2023-01-25T20:46:19.338Z,100689.50
2023-01-25T20:48:47.117Z,100688.34
2023-01-25T20:51:17.093Z,100688.81
2023-01-25T20:53:46.103Z,100683.44
2023-01-25T20:56:14.225Z,100664.28
2023-01-25T20:58:42.519Z,100678.94
2023-01-25T21:01:18.555Z,100675.16
2023-01-25T21:03:46.024Z,100659.38
2023-01-25T21:06:13.861Z,100666.41
2023-01-25T21:08:41.209Z,100655.34
2023-01-25T21:11:09.409Z,100654.03
2023-01-25T21:13:36.503Z,100636.28
2023-01-25T21:16:05.326Z,100650.63
2023-01-25T21:18:40.839Z,100613.84
2023-01-25T21:21:09.515Z,100651.69
2023-01-25T21:23:39.246Z,100630.75
2023-01-25T21:26:07.462Z,100650.19
2023-01-25T21:28:35.331Z,100629.41
2023-01-25T21:31:19.302Z,100650.03
2023-01-25T21:33:48.119Z,100628.28
2023-01-25T21:36:16.731Z,100633.53
2023-01-25T21:38:48.978Z,100631.41
2023-01-25T21:41:20.206Z,100623.00
2023-01-25T21:44:07.114Z,100616.88
2023-01-25T21:46:34.816Z,100638.88
2023-01-25T21:49:23.566Z,100628.50
2023-01-25T21:51:52.586Z,100630.94
2023-01-25T21:54:23.934Z,100610.78
2023-01-25T21:56:53.385Z,100619.47
2023-01-25T21:59:21.736Z,100618.28
2023-01-25T22:01:49.395Z,100611.88
2023-01-25T22:04:18.004Z,100607.44
2023-01-25T22:06:45.579Z,100611.41
2023-01-25T22:09:13.796Z,100615.44
2023-01-25T22:11:41.183Z,100613.06
2023-01-25T22:14:08.289Z,100616.13
2023-01-25T22:16:35.514Z,100617.91
2023-01-25T22:19:02.702Z,100602.22
2023-01-25T22:21:32.243Z,100609.41
2023-01-25T22:24:01.754Z,100612.94
2023-01-25T22:27:24.290Z,100610.66
2023-01-25T22:29:51.445Z,100608.50
2023-01-25T22:32:18.588Z,100610.91
2023-01-25T22:34:45.647Z,100614.75
2023-01-25T22:37:12.845Z,100599.03
2023-01-25T22:39:40.157Z,100606.06
2023-01-25T22:42:07.401Z,100575.53
2023-01-25T22:44:34.480Z,100582.78
2023-01-25T22:47:01.655Z,100598.13
2023-01-25T22:49:28.844Z,100594.25
2023-01-25T22:51:56.009Z,100592.69
2023-01-25T22:54:23.118Z,100570.81
2023-01-25T22:56:50.203Z,100594.44
2023-01-25T22:59:19.187Z,100592.16
2023-01-25T23:01:46.461Z,100568.81
2023-01-25T23:04:13.627Z,100566.22
2023-01-25T23:06:40.791Z,100580.25
2023-01-25T23:09:08.018Z,100576.16
2023-01-25T23:11:37.773Z,100586.16
2023-01-25T23:14:30.720Z,100574.34
2023-01-25T23:17:17.788Z,100570.66
2023-01-25T23:19:45.173Z,100564.72
2023-01-25T23:22:12.445Z,100556.00
2023-01-25T23:24:39.609Z,100553.13
2023-01-25T23:27:06.838Z,100561.28
2023-01-25T23:29:33.902Z,100571.88
2023-01-25T23:32:01.043Z,100565.91
2023-01-25T23:34:28.244Z,100571.13
2023-01-25T23:36:55.373Z,100571.88
2023-01-25T23:39:23.727Z,100564.88
2023-01-25T23:41:52.471Z,100574.00
2023-01-25T23:44:19.550Z,100550.59
2023-01-25T23:46:46.890Z,100569.59
2023-01-25T23:49:14.324Z,100562.88
2023-01-25T23:51:41.448Z,100558.22
2023-01-25T23:54:08.648Z,100565.16
2023-01-25T23:56:35.720Z,100564.56
2023-01-25T23:59:02.802Z,100562.13
